Dades meteomassalio
Diari Summary for Marc 8, 2017 Units:  Metric    English   Both
« Previous Day
Next Day »
Diari Semanal Mensual Anual Personalitzat
  Maxima: Minima: Mijana:
Temperatura: -17.8 °C -12.9 °C -9.3 °C
Rosada: -17.8 °C -14.2 °C -13 °C
Humitat: Humidity % 47 % 65 %
Velocitat del vent: 0 km/h 0 km/h 30.6 km/h
Racha vent: 0 km/h - -
Vent:- - WNW
Pressio: 0 hPa 34659.1 hPa -
Pluja: 0 mm    
Historical Graphs
 
 
Tabular Data for Marc 8, 2017
Time Temperature Dew Point Pressure Wind Wind Speed Wind Gust Humidity Rainfall Rate (Hourly) solar Conditions
-17.8 °C -17.8 °C 0 hPa Calm     Humidity % 0 mm SolarRadiationWatts/m^2 W/m2 Conditions
00:01 -9.9 °C -12.8 °C 34659.1 hPa WNW 83.4 km/h 83.4 km/h 71 % 0 mm 0.0 W/m2 CLR
00:07 -9.9 °C -12.8 °C 34659.1 hPa NW 98.3 km/h 98.3 km/h 71 % 0 mm 0.0 W/m2
00:12 -9.9 °C -12.8 °C 34669.3 hPa NW 83.4 km/h 83.4 km/h 71 % 0 mm 0.0 W/m2 CLR
00:17 -10 °C -12.9 °C 34669.3 hPa NNW 68.6 km/h 68.6 km/h 71 % 0 mm 0.0 W/m2 CLR
00:22 -10 °C -12.9 °C 34669.3 hPa NW 65.5 km/h 65.5 km/h 71 % 0 mm 0.0 W/m2 CLR
00:27 -10 °C -12.9 °C 34669.3 hPa NW 82.9 km/h 82.9 km/h 71 % 0 mm 0.0 W/m2 CLR
00:32 -10.1 °C -12.8 °C 34682.8 hPa NNW 86.4 km/h 86.4 km/h 72 % 0 mm 0.0 W/m2 CLR
00:37 -10.1 °C -12.8 °C 34669.3 hPa NW 83.4 km/h 83.4 km/h 72 % 0 mm 0.0 W/m2 CLR
00:42 -10.1 °C -12.9 °C 34669.3 hPa WNW 74.5 km/h 74.5 km/h 72 % 0 mm 0.0 W/m2 CLR
00:47 -10.2 °C -12.8 °C 34669.3 hPa West 68.6 km/h 68.6 km/h 73 % 0 mm 0.0 W/m2 CLR
00:52 -10.2 °C -12.9 °C 34669.3 hPa NW 59.5 km/h 59.5 km/h 73 % 0 mm 0.0 W/m2 CLR
00:57 -10.2 °C -12.9 °C 34669.3 hPa NNW 86.4 km/h 86.4 km/h 73 % 0 mm 0.0 W/m2 CLR
01:02 -10.2 °C -12.9 °C 34682.8 hPa NNW 83.4 km/h 83.4 km/h 73 % 0 mm 0.0 W/m2 CLR
01:07 -10.2 °C -12.9 °C 34682.8 hPa WNW 77.4 km/h 77.4 km/h 73 % 0 mm 0.0 W/m2 CLR
01:12 -10.2 °C -12.9 °C 34682.8 hPa NW 71.5 km/h 71.5 km/h 73 % 0 mm 0.0 W/m2 CLR
01:17 -10.2 °C -12.9 °C 34669.3 hPa WNW 83.4 km/h 83.4 km/h 72 % 0 mm 0.0 W/m2 CLR
01:22 -10.2 °C -12.9 °C 34669.3 hPa NW 50.7 km/h 50.7 km/h 72 % 0 mm 0.0 W/m2 CLR
01:27 -10.2 °C -12.9 °C 34669.3 hPa WNW 80.5 km/h 80.5 km/h 72 % 0 mm 0.0 W/m2 CLR
01:32 -10.2 °C -12.9 °C 34669.3 hPa NW 53.6 km/h 53.6 km/h 72 % 0 mm 0.0 W/m2 CLR
01:33 -10.2 °C -13 °C 34669.3 hPa WNW 59.5 km/h 59.5 km/h 72 % 0 mm 0.0 W/m2 CLR
01:38 -10.3 °C -12.9 °C 34669.3 hPa NW 64.7 km/h 64.7 km/h 73 % 0 mm 0.0 W/m2 CLR
01:43 -10.2 °C -13 °C 34669.3 hPa NW 80.5 km/h 80.5 km/h 72 % 0 mm 0.0 W/m2 CLR
01:48 -10.2 °C -12.9 °C 34669.3 hPa NNW 92.4 km/h 92.4 km/h 72 % 0 mm 0.0 W/m2 CLR
01:53 -10.2 °C -13 °C 34669.3 hPa NNW 56.6 km/h 56.6 km/h 72 % 0 mm 0.0 W/m2 CLR
01:58 -10.2 °C -12.9 °C 34682.8 hPa NW 83.4 km/h 83.4 km/h 72 % 0 mm 0.0 W/m2 CLR
02:03 -10.2 °C -13 °C 34682.8 hPa NW 68.6 km/h 68.6 km/h 72 % 0 mm 0.0 W/m2 CLR
02:08 -10.2 °C -12.9 °C 34682.8 hPa NW 75.2 km/h 75.2 km/h 72 % 0 mm 0.0 W/m2 CLR
02:13 -10.2 °C -12.9 °C 34682.8 hPa NW 74.5 km/h 74.5 km/h 72 % 0 mm 0.0 W/m2 CLR
02:18 -10.2 °C -12.9 °C 34682.8 hPa NW 65.5 km/h 65.5 km/h 72 % 0 mm 0.0 W/m2 CLR
02:23 -10.2 °C -13 °C 34693 hPa NW 50.7 km/h 50.7 km/h 72 % 0 mm 0.0 W/m2 CLR
02:28 -10.2 °C -13 °C 34693 hPa NW 68.6 km/h 68.6 km/h 72 % 0 mm 0.0 W/m2 CLR
02:33 -10.3 °C -13.1 °C 34693 hPa WNW 50.7 km/h 50.7 km/h 72 % 0 mm 0.0 W/m2 CLR
02:38 -10.3 °C -13.1 °C 34693 hPa NNW 54.4 km/h 54.4 km/h 72 % 0 mm 0.0 W/m2 CLR
02:39 -10.3 °C -13.1 °C 34693 hPa WNW 68.6 km/h 68.6 km/h 72 % 0 mm 0.0 W/m2 CLR
02:44 -10.3 °C -13.1 °C 34693 hPa NNW 68.6 km/h 68.6 km/h 72 % 0 mm 0.0 W/m2 CLR
02:49 -10.3 °C -13 °C 34693 hPa WNW 62.6 km/h 62.6 km/h 72 % 0 mm 0.0 W/m2 CLR
02:54 -10.3 °C -13.1 °C 34693 hPa WNW 62.6 km/h 62.6 km/h 72 % 0 mm 0.0 W/m2 CLR
02:59 -10.3 °C -13.1 °C 34693 hPa WNW 50.7 km/h 50.7 km/h 72 % 0 mm 0.0 W/m2 CLR
03:04 -10.4 °C -13.1 °C 34693 hPa NW 50.7 km/h 50.7 km/h 72 % 0 mm 0.0 W/m2 CLR
03:09 -10.4 °C -13.1 °C 34693 hPa WNW 68.6 km/h 68.6 km/h 72 % 0 mm 0.0 W/m2 CLR
03:14 -10.4 °C -13 °C 34693 hPa NNW 59.5 km/h 59.5 km/h 73 % 0 mm 0.0 W/m2 CLR
03:19 -10.4 °C -13.1 °C 34693 hPa NW 41.7 km/h 41.7 km/h 73 % 0 mm 0.0 W/m2 CLR
03:24 -10.4 °C -13.1 °C 34693 hPa NW 50.7 km/h 50.7 km/h 73 % 0 mm 0.0 W/m2 CLR
03:29 -10.5 °C -13.1 °C 34693 hPa WNW 44.7 km/h 44.7 km/h 73 % 0 mm 0.0 W/m2 CLR
03:34 -10.4 °C -13.1 °C 34693 hPa NW 41.7 km/h 41.7 km/h 73 % 0 mm 0.0 W/m2 CLR
03:39 -10.4 °C -13.1 °C 34693 hPa WNW 50.7 km/h 50.7 km/h 73 % 0 mm 0.0 W/m2 CLR
03:44 -10.4 °C -13.2 °C 34703.1 hPa WNW 47.6 km/h 47.6 km/h 72 % 0 mm 0.0 W/m2 CLR
03:49 -10.4 °C -13.2 °C 34693 hPa NW 57 km/h 57 km/h 72 % 0 mm 0.0 W/m2 CLR
03:54 -10.4 °C -13.2 °C 34703.1 hPa NNW 44.7 km/h 44.7 km/h 72 % 0 mm 0.0 W/m2 CLR
03:59 -10.4 °C -13.2 °C 34703.1 hPa West 44.7 km/h 44.7 km/h 72 % 0 mm 0.0 W/m2 CLR
04:05 -10.4 °C -13.2 °C 34703.1 hPa WNW 44.1 km/h 44.1 km/h 72 % 0 mm 0.0 W/m2 CLR
04:10 -10.4 °C -13.3 °C 34703.1 hPa NNW 38.8 km/h 38.8 km/h 71 % 0 mm 0.0 W/m2 CLR
04:15 -10.4 °C -13.2 °C 34703.1 hPa WNW 44.1 km/h 44.1 km/h 72 % 0 mm 0.0 W/m2 CLR
04:20 -10.4 °C -13.3 °C 34703.1 hPa WNW 44.1 km/h 44.1 km/h 71 % 0 mm 0.0 W/m2 CLR
04:25 -10.5 °C -13.2 °C 34716.7 hPa NW 41.7 km/h 41.7 km/h 72 % 0 mm 0.0 W/m2 CLR
04:30 -10.5 °C -13.2 °C 34716.7 hPa West 47.6 km/h 47.6 km/h 72 % 0 mm 0.0 W/m2 CLR
04:35 -10.5 °C -13.3 °C 34716.7 hPa WSW 29.8 km/h 29.8 km/h 72 % 0 mm 0.0 W/m2 CLR
04:40 -10.5 °C -13.3 °C 34716.7 hPa West 28.5 km/h 28.5 km/h 72 % 0 mm 0.0 W/m2 CLR
04:45 -10.7 °C -13.3 °C 34716.7 hPa West 26.9 km/h 26.9 km/h 73 % 0 mm 0.0 W/m2 CLR
04:50 -10.7 °C -13.3 °C 34716.7 hPa West 32.8 km/h 32.8 km/h 73 % 0 mm 0.0 W/m2 CLR
04:55 -10.7 °C -13.4 °C 34716.7 hPa West 29.8 km/h 29.8 km/h 73 % 0 mm 0.0 W/m2 CLR
05:00 -10.8 °C -13.3 °C 34716.7 hPa West 26.9 km/h 26.9 km/h 74 % 0 mm 0.0 W/m2 CLR
05:05 -10.8 °C -13.3 °C 34716.7 hPa West 29.8 km/h 29.8 km/h 74 % 0 mm 0.0 W/m2 CLR
05:10 -10.9 °C -13.4 °C 34716.7 hPa West 33.6 km/h 33.6 km/h 74 % 0 mm 0.0 W/m2 CLR
05:15 -10.8 °C -13.3 °C 34716.7 hPa West 38.8 km/h 38.8 km/h 74 % 0 mm 0.0 W/m2 CLR
05:20 -10.9 °C -13.4 °C 34726.8 hPa SSW 9 km/h 14.2 km/h 74 % 0 mm 0.0 W/m2 CLR
05:25 -10.9 °C -13.4 °C 34726.8 hPa WSW 31.1 km/h 31.1 km/h 74 % 0 mm 0.0 W/m2 CLR
05:30 -10.9 °C -13.4 °C 34726.8 hPa SW 26.9 km/h 26.9 km/h 74 % 0 mm 0.0 W/m2 CLR
05:35 -11 °C -13.4 °C 34726.8 hPa SSW 12.9 km/h 12.9 km/h 75 % 0 mm 0.0 W/m2 CLR
05:40 -11 °C -13.4 °C 34740.4 hPa WSW 28.5 km/h 28.5 km/h 75 % 0 mm 0.0 W/m2 CLR
05:45 -11 °C -13.5 °C 34740.4 hPa West 29.8 km/h 29.8 km/h 74 % 0 mm 0.0 W/m2 CLR
05:50 -10.9 °C -13.4 °C 34726.8 hPa WNW 32.8 km/h 32.8 km/h 74 % 0 mm 0.0 W/m2 CLR
05:55 -10.8 °C -13.3 °C 34726.8 hPa West 46.7 km/h 46.7 km/h 74 % 0 mm 0.0 W/m2 CLR
06:00 -10.8 °C -13.4 °C 34726.8 hPa West 41.4 km/h 41.4 km/h 73 % 0 mm 0.0 W/m2 CLR
06:05 -10.8 °C -13.4 °C 34726.8 hPa West 41.7 km/h 41.7 km/h 73 % 0 mm 0.0 W/m2 CLR
06:10 -10.7 °C -13.4 °C 34740.4 hPa West 29.8 km/h 29.8 km/h 73 % 0 mm 0.0 W/m2 CLR
06:15 -10.7 °C -13.4 °C 34740.4 hPa SW 32.8 km/h 32.8 km/h 73 % 0 mm 0.0 W/m2 CLR
06:20 -10.8 °C -13.4 °C 34750.5 hPa West 26.9 km/h 26.9 km/h 73 % 0 mm 0.0 W/m2 CLR
06:25 -10.8 °C -13.4 °C 34750.5 hPa SW 32.8 km/h 32.8 km/h 73 % 0 mm 0.0 W/m2 CLR
06:30 -10.8 °C -13.4 °C 34750.5 hPa WSW 23.8 km/h 23.8 km/h 73 % 0 mm 0.0 W/m2 CLR
06:35 -10.8 °C -13.4 °C 34750.5 hPa WSW 9 km/h 9 km/h 73 % 0 mm 0.0 W/m2 CLR
06:40 -10.8 °C -13.4 °C 34760.7 hPa WSW 11.9 km/h 11.9 km/h 73 % 0 mm 0.0 W/m2 CLR
06:45 -10.9 °C -13.5 °C 34760.7 hPa WSW 17.9 km/h 17.9 km/h 73 % 0 mm 0.0 W/m2 CLR
06:50 -10.9 °C -13.5 °C 34760.7 hPa WSW 17.9 km/h 17.9 km/h 73 % 0 mm 0.0 W/m2 CLR
06:55 -10.8 °C -13.4 °C 34760.7 hPa SW 20.9 km/h 20.9 km/h 73 % 0 mm 0.0 W/m2 CLR
07:00 -10.8 °C -13.4 °C 34760.7 hPa WSW 31.1 km/h 31.1 km/h 73 % 0 mm 0.0 W/m2 CLR
07:05 -10.8 °C -13.4 °C 34760.7 hPa WSW 29.8 km/h 29.8 km/h 73 % 0 mm 0.0 W/m2 CLR
07:10 -10.8 °C -13.4 °C 34760.7 hPa West 38.8 km/h 38.8 km/h 73 % 0 mm 0.0 W/m2 CLR
07:15 -10.8 °C -13.5 °C 34760.7 hPa West 41.7 km/h 41.7 km/h 72 % 0 mm 5.0 W/m2 OVC
07:20 -10.7 °C -13.4 °C 34760.7 hPa West 36.2 km/h 36.2 km/h 72 % 0 mm 5.0 W/m2 OVC
07:25 -10.7 °C -13.4 °C 34774.2 hPa West 41.7 km/h 41.7 km/h 72 % 0 mm 0.0 W/m2 OVC
07:30 -10.7 °C -13.4 °C 34774.2 hPa WNW 33.6 km/h 33.6 km/h 72 % 0 mm 7.0 W/m2 OVC
07:35 -10.7 °C -13.4 °C 34774.2 hPa West 35.7 km/h 35.7 km/h 72 % 0 mm 11.0 W/m2 BKN
07:40 -10.7 °C -13.5 °C 34774.2 hPa West 26.9 km/h 26.9 km/h 72 % 0 mm 14.0 W/m2 BKN
07:45 -10.8 °C -13.5 °C 34774.2 hPa WNW 41.7 km/h 41.7 km/h 72 % 0 mm 21.0 W/m2 BKN
07:50 -10.7 °C -13.5 °C 34784.4 hPa WNW 44.7 km/h 44.7 km/h 72 % 0 mm 25.0 W/m2 BKN
07:55 -10.7 °C -13.4 °C 34784.4 hPa West 26.9 km/h 26.9 km/h 72 % 0 mm 33.0 W/m2 BKN
08:00 -10.6 °C -13.4 °C 34784.4 hPa West 23.8 km/h 23.8 km/h 71 % 0 mm 44.0 W/m2 BKN
08:05 -10.6 °C -13.4 °C 34784.4 hPa WNW 29.8 km/h 29.8 km/h 71 % 0 mm 49.0 W/m2 SCT
08:10 -10.6 °C -13.4 °C 34797.9 hPa West 23.8 km/h 23.8 km/h 71 % 0 mm 58.0 W/m2 SCT
08:15 -10.5 °C -13.4 °C 34797.9 hPa SW 29.8 km/h 29.8 km/h 71 % 0 mm 70.0 W/m2 FEW
08:20 -10.4 °C -13.3 °C 34797.9 hPa SW 9 km/h 9 km/h 71 % 0 mm 98.0 W/m2 CLR
08:25 -10.4 °C -13.3 °C 34797.9 hPa SW 9 km/h 9 km/h 71 % 0 mm 118.0 W/m2 CLR
08:30 -10.4 °C -13.3 °C 34797.9 hPa WNW 17.9 km/h 17.9 km/h 70 % 0 mm 130.0 W/m2 CLR
08:35 -10.3 °C -13.3 °C 34797.9 hPa WNW 44.1 km/h 44.1 km/h 70 % 0 mm 113.0 W/m2 CLR
08:40 -10.2 °C -13.2 °C 34797.9 hPa WNW 29.8 km/h 29.8 km/h 70 % 0 mm 148.0 W/m2 CLR
08:45 -10.2 °C -13.3 °C 34797.9 hPa West 32.8 km/h 32.8 km/h 69 % 0 mm 105.0 W/m2 CLR
08:50 -10.2 °C -13.3 °C 34797.9 hPa West 29.8 km/h 29.8 km/h 69 % 0 mm 146.0 W/m2 CLR
08:55 -10.1 °C -13.2 °C 34797.9 hPa West 35.7 km/h 35.7 km/h 69 % 0 mm 220.0 W/m2 CLR
09:00 -10 °C -13.2 °C 34797.9 hPa West 23.8 km/h 23.8 km/h 68 % 0 mm 267.0 W/m2 CLR
09:05 -9.9 °C -13.2 °C 34797.9 hPa WSW 38.8 km/h 38.8 km/h 68 % 0 mm 229.0 W/m2 CLR
09:10 -9.8 °C -13.2 °C 34797.9 hPa West 47.6 km/h 47.6 km/h 67 % 0 mm 255.0 W/m2 CLR
09:15 -9.8 °C -13.2 °C 34797.9 hPa West 50.7 km/h 50.7 km/h 67 % 0 mm 262.0 W/m2 CLR
09:20 -9.8 °C -13.2 °C 34797.9 hPa WSW 44.7 km/h 44.7 km/h 67 % 0 mm 264.0 W/m2 CLR
09:25 -9.8 °C -13.2 °C 34797.9 hPa West 46.7 km/h 46.7 km/h 67 % 0 mm 327.0 W/m2 CLR
09:26 -9.8 °C -13.2 °C 34797.9 hPa WNW 47.6 km/h 47.6 km/h 67 % 0 mm 353.0 W/m2 CLR
09:31 -9.8 °C -13.1 °C 34797.9 hPa West 38.8 km/h 38.8 km/h 67 % 0 mm 283.0 W/m2 CLR
09:36 -9.7 °C -13 °C 34797.9 hPa WNW 47.6 km/h 47.6 km/h 67 % 0 mm 408.0 W/m2 CLR
09:41 -9.6 °C -12.9 °C 34797.9 hPa West 36.2 km/h 36.2 km/h 67 % 0 mm 411.0 W/m2 CLR
09:46 -9.6 °C -12.9 °C 34797.9 hPa WNW 50.7 km/h 50.7 km/h 67 % 0 mm 176.0 W/m2 CLR
09:51 -9.6 °C -12.9 °C 34797.9 hPa West 38.8 km/h 38.8 km/h 67 % 0 mm 418.0 W/m2 CLR
09:56 -9.6 °C -13.1 °C 34797.9 hPa WSW 38.8 km/h 38.8 km/h 66 % 0 mm 399.0 W/m2 CLR
10:01 -9.6 °C -13 °C 34797.9 hPa West 44.7 km/h 44.7 km/h 66 % 0 mm 221.0 W/m2 CLR
10:06 -9.5 °C -13 °C 34797.9 hPa SW 41.7 km/h 41.7 km/h 66 % 0 mm 318.0 W/m2 CLR
10:11 -9.5 °C -13.1 °C 34797.9 hPa WNW 50.7 km/h 50.7 km/h 65 % 0 mm 223.0 W/m2 CLR
10:16 -9.5 °C -12.9 °C 34797.9 hPa WNW 41.7 km/h 41.7 km/h 66 % 0 mm 348.0 W/m2 CLR
10:21 -9.5 °C -12.9 °C 34797.9 hPa West 32.8 km/h 32.8 km/h 66 % 0 mm 142.0 W/m2 CLR
10:26 -9.4 °C -13.1 °C 34797.9 hPa WSW 41.7 km/h 41.7 km/h 65 % 0 mm 302.0 W/m2 CLR
10:31 -9.3 °C -12.9 °C 34797.9 hPa West 32.8 km/h 32.8 km/h 65 % 0 mm 476.0 W/m2 CLR
10:36 -9.1 °C -12.9 °C 34797.9 hPa West 38.8 km/h 38.8 km/h 64 % 0 mm 529.0 W/m2 CLR
10:41 -9 °C -12.7 °C 34797.9 hPa West 38.8 km/h 38.8 km/h 65 % 0 mm 501.0 W/m2 CLR
10:46 -8.9 °C -12.7 °C 34797.9 hPa WNW 20.9 km/h 20.9 km/h 64 % 0 mm 533.0 W/m2 CLR
10:51 -8.7 °C -12.5 °C 34797.9 hPa NW 32.8 km/h 32.8 km/h 64 % 0 mm 510.0 W/m2 CLR
10:56 -8.7 °C -12.7 °C 34797.9 hPa WNW 41.4 km/h 41.4 km/h 62 % 0 mm 547.0 W/m2 CLR
11:01 -8.7 °C -12.4 °C 34797.9 hPa NW 29.8 km/h 29.8 km/h 64 % 0 mm 476.0 W/m2 CLR
11:06 -8.5 °C -12.4 °C 34797.9 hPa WNW 29.8 km/h 29.8 km/h 63 % 0 mm 599.0 W/m2 CLR
11:11 -8.6 °C -12.7 °C 34797.9 hPa WNW 50.7 km/h 50.7 km/h 61 % 0 mm 568.0 W/m2 CLR
11:16 -8.4 °C -12.7 °C 34797.9 hPa WNW 41.7 km/h 41.7 km/h 61 % 0 mm 538.0 W/m2 CLR
11:21 -8.4 °C -12.8 °C 34808.1 hPa West 38.8 km/h 38.8 km/h 60 % 0 mm 506.0 W/m2 CLR
11:26 -8.4 °C -12.8 °C 34808.1 hPa West 35.7 km/h 35.7 km/h 60 % 0 mm 621.0 W/m2 CLR
11:31 -8.4 °C -12.8 °C 34797.9 hPa West 46.7 km/h 46.7 km/h 59 % 0 mm 538.0 W/m2 CLR
11:36 -8.3 °C -12.6 °C 34808.1 hPa West 38.8 km/h 38.8 km/h 60 % 0 mm 629.0 W/m2 CLR
11:41 -8.2 °C -12.7 °C 34797.9 hPa WNW 44.7 km/h 44.7 km/h 59 % 0 mm 598.0 W/m2 CLR
11:46 -8.2 °C -12.8 °C 34797.9 hPa WNW 38.8 km/h 38.8 km/h 58 % 0 mm 613.0 W/m2 CLR
11:47 -8.2 °C -12.7 °C 34797.9 hPa NW 38.8 km/h 38.8 km/h 59 % 0 mm 613.0 W/m2 CLR
11:52 -8.1 °C -12.7 °C 34797.9 hPa West 38.8 km/h 38.8 km/h 58 % 0 mm 675.0 W/m2 CLR
11:57 -8 °C -12.7 °C 34797.9 hPa WNW 36.2 km/h 36.2 km/h 58 % 0 mm 575.0 W/m2 CLR
12:02 -8 °C -12.8 °C 34797.9 hPa WNW 44.7 km/h 44.7 km/h 57 % 0 mm 633.0 W/m2 CLR
12:07 -7.9 °C -12.7 °C 34797.9 hPa WNW 33.6 km/h 33.6 km/h 57 % 0 mm 664.0 W/m2 CLR
12:12 -7.9 °C -12.6 °C 34797.9 hPa NW 35.7 km/h 35.7 km/h 58 % 0 mm 679.0 W/m2 CLR
12:17 -7.7 °C -12.6 °C 34797.9 hPa NW 41.7 km/h 41.7 km/h 57 % 0 mm 635.0 W/m2 CLR
12:22 -7.8 °C -12.7 °C 34797.9 hPa WNW 41.7 km/h 41.7 km/h 56 % 0 mm 561.0 W/m2 CLR
12:27 -7.7 °C -12.8 °C 34784.4 hPa NW 47.6 km/h 47.6 km/h 55 % 0 mm 649.0 W/m2 CLR
12:32 -7.6 °C -12.9 °C 34784.4 hPa West 46.7 km/h 46.7 km/h 54 % 0 mm 635.0 W/m2 CLR
12:37 -7.4 °C -12.6 °C 34797.9 hPa NW 29.8 km/h 29.8 km/h 55 % 0 mm 679.0 W/m2 CLR
12:42 -7.4 °C -12.9 °C 34784.4 hPa WSW 32.8 km/h 32.8 km/h 53 % 0 mm 673.0 W/m2 CLR
12:47 -7.4 °C -12.7 °C 34797.9 hPa WNW 41.4 km/h 41.4 km/h 54 % 0 mm 668.0 W/m2 CLR
12:52 -7.3 °C -12.4 °C 34784.4 hPa WNW 33.6 km/h 33.6 km/h 55 % 0 mm 668.0 W/m2 CLR
12:57 -7.3 °C -12.4 °C 34784.4 hPa WNW 35.7 km/h 35.7 km/h 55 % 0 mm 694.0 W/m2 CLR
13:02 -7.2 °C -12.3 °C 34784.4 hPa WNW 47.6 km/h 47.6 km/h 55 % 0 mm 689.0 W/m2 CLR
13:07 -7.1 °C -12.6 °C 34784.4 hPa NW 36.2 km/h 36.2 km/h 53 % 0 mm 691.0 W/m2 CLR
13:12 -7.2 °C -12.4 °C 34784.4 hPa NW 29.8 km/h 29.8 km/h 54 % 0 mm 664.0 W/m2 CLR
13:17 -7.1 °C -12.4 °C 34784.4 hPa NNW 38.8 km/h 38.8 km/h 54 % 0 mm 673.0 W/m2 CLR
13:22 -7.1 °C -12.5 °C 34774.2 hPa NW 35.7 km/h 35.7 km/h 53 % 0 mm 686.0 W/m2 CLR
13:27 -7.1 °C -12.3 °C 34774.2 hPa NW 32.8 km/h 32.8 km/h 54 % 0 mm 654.0 W/m2 CLR
13:32 -7 °C -12.4 °C 34774.2 hPa NW 35.7 km/h 35.7 km/h 53 % 0 mm 666.0 W/m2 CLR
13:37 -6.8 °C -12.3 °C 34774.2 hPa WNW 33.6 km/h 33.6 km/h 53 % 0 mm 696.0 W/m2 CLR
13:42 -6.7 °C -12.3 °C 34760.7 hPa WNW 36.2 km/h 36.2 km/h 52 % 0 mm 701.0 W/m2 CLR
13:47 -6.7 °C -12.5 °C 34760.7 hPa NW 41.7 km/h 41.7 km/h 51 % 0 mm 679.0 W/m2 CLR
13:52 -6.8 °C -12.6 °C 34760.7 hPa NNW 33.6 km/h 33.6 km/h 51 % 0 mm 694.0 W/m2 CLR
13:57 -6.6 °C -12 °C 34760.7 hPa NW 29.8 km/h 29.8 km/h 54 % 0 mm 700.0 W/m2 CLR
14:02 -6.5 °C -12.5 °C 34760.7 hPa NNW 44.7 km/h 44.7 km/h 50 % 0 mm 705.0 W/m2 CLR
14:07 -6.5 °C -12.3 °C 34750.5 hPa NW 29.8 km/h 29.8 km/h 51 % 0 mm 668.0 W/m2 CLR
14:12 -6.4 °C -12.4 °C 34750.5 hPa NW 41.7 km/h 41.7 km/h 50 % 0 mm 640.0 W/m2 CLR
14:17 -6.4 °C -12.2 °C 34750.5 hPa NW 44.1 km/h 44.1 km/h 51 % 0 mm 564.0 W/m2 CLR
14:22 -6.4 °C -12.4 °C 34750.5 hPa NW 38.8 km/h 38.8 km/h 50 % 0 mm 652.0 W/m2 CLR
14:27 -6.3 °C -12.2 °C 34750.5 hPa NW 32.8 km/h 32.8 km/h 51 % 0 mm 601.0 W/m2 CLR
14:32 -6.3 °C -12.3 °C 34740.4 hPa NW 35.7 km/h 35.7 km/h 50 % 0 mm 606.0 W/m2 CLR
14:37 -6.2 °C -12.2 °C 34740.4 hPa WNW 35.7 km/h 35.7 km/h 50 % 0 mm 661.0 W/m2 CLR
14:42 -6.1 °C -12.4 °C 34740.4 hPa NW 35.7 km/h 35.7 km/h 48 % 0 mm 635.0 W/m2 CLR
14:47 -6.2 °C -12.5 °C 34740.4 hPa NW 38.8 km/h 38.8 km/h 48 % 0 mm 417.0 W/m2 CLR
14:52 -6.2 °C -12.4 °C 34740.4 hPa NNW 50.7 km/h 50.7 km/h 49 % 0 mm 580.0 W/m2 CLR
14:57 -6.2 °C -12.1 °C 34740.4 hPa NW 35.7 km/h 35.7 km/h 51 % 0 mm 541.0 W/m2 CLR
15:02 -6.2 °C -12.2 °C 34740.4 hPa NW 35.7 km/h 35.7 km/h 50 % 0 mm 603.0 W/m2 CLR
15:07 -6.1 °C -12.1 °C 34740.4 hPa WNW 32.8 km/h 32.8 km/h 50 % 0 mm 550.0 W/m2 CLR
15:12 -6.1 °C -12.3 °C 34740.4 hPa NW 29.8 km/h 29.8 km/h 49 % 0 mm 288.0 W/m2 CLR
15:17 -6.2 °C -12.3 °C 34740.4 hPa WNW 32.8 km/h 32.8 km/h 49 % 0 mm 192.0 W/m2 CLR
15:18 -6.2 °C -12.6 °C 34740.4 hPa WNW 26.9 km/h 26.9 km/h 48 % 0 mm 192.0 W/m2 CLR
15:23 -6.3 °C -12.4 °C 34740.4 hPa WNW 23.8 km/h 23.8 km/h 49 % 0 mm 429.0 W/m2 CLR
15:28 -6.2 °C -12.2 °C 34740.4 hPa NNW 26.9 km/h 26.9 km/h 50 % 0 mm 492.0 W/m2 CLR
15:33 -6.2 °C -12.5 °C 34740.4 hPa NNW 32.8 km/h 32.8 km/h 48 % 0 mm 362.0 W/m2 CLR
15:38 -6.2 °C -12.6 °C 34740.4 hPa NW 29.8 km/h 29.8 km/h 48 % 0 mm 408.0 W/m2 CLR
15:43 -6.2 °C -12.3 °C 34740.4 hPa NNW 32.8 km/h 32.8 km/h 49 % 0 mm 425.0 W/m2 CLR
15:48 -6.1 °C -12.3 °C 34726.8 hPa NW 29.8 km/h 29.8 km/h 49 % 0 mm 601.0 W/m2 CLR
15:53 -5.9 °C -12.3 °C 34726.8 hPa NNW 29.8 km/h 29.8 km/h 48 % 0 mm 471.0 W/m2 CLR
15:58 -5.9 °C -12.2 °C 34726.8 hPa WNW 35.7 km/h 35.7 km/h 49 % 0 mm 404.0 W/m2 CLR
16:03 -5.9 °C -12.1 °C 34726.8 hPa NW 29.8 km/h 29.8 km/h 49 % 0 mm 487.0 W/m2 CLR
16:08 -5.9 °C -12.5 °C 34726.8 hPa NNW 41.7 km/h 41.7 km/h 47 % 0 mm 308.0 W/m2 CLR
16:13 -6.1 °C -12.4 °C 34726.8 hPa NW 29.8 km/h 29.8 km/h 48 % 0 mm 311.0 W/m2 CLR
16:18 -6 °C -12.3 °C 34726.8 hPa NNW 29.8 km/h 29.8 km/h 48 % 0 mm 346.0 W/m2 CLR
16:23 -5.9 °C -12.2 °C 34726.8 hPa NW 29.8 km/h 29.8 km/h 49 % 0 mm 376.0 W/m2 CLR
16:28 -5.9 °C -12.4 °C 34726.8 hPa NW 23.8 km/h 23.8 km/h 47 % 0 mm 362.0 W/m2 CLR
16:33 -5.9 °C -12.3 °C 34726.8 hPa NNW 29.8 km/h 29.8 km/h 48 % 0 mm 348.0 W/m2 CLR
16:38 -5.9 °C -12.3 °C 34716.7 hPa NW 29.8 km/h 29.8 km/h 48 % 0 mm 352.0 W/m2 CLR
16:43 -5.9 °C -12.5 °C 34726.8 hPa WNW 35.7 km/h 35.7 km/h 47 % 0 mm 406.0 W/m2 CLR
16:48 -5.9 °C -12.3 °C 34716.7 hPa NW 41.7 km/h 41.7 km/h 48 % 0 mm 376.0 W/m2 CLR
16:53 -5.9 °C -12.5 °C 34716.7 hPa NW 26.9 km/h 26.9 km/h 47 % 0 mm 295.0 W/m2 CLR
16:58 -6 °C -12.6 °C 34716.7 hPa North 29.8 km/h 29.8 km/h 47 % 0 mm 229.0 W/m2 CLR
17:03 -6.1 °C -12.2 °C 34716.7 hPa NNW 9 km/h 9 km/h 49 % 0 mm 216.0 W/m2 CLR
17:08 -6.1 °C -12.4 °C 34716.7 hPa NNW 15.6 km/h 15.6 km/h 48 % 0 mm 165.0 W/m2 CLR
17:13 -6.2 °C -12.6 °C 34716.7 hPa Calm     48 % 0 mm 165.0 W/m2 CLR
17:18 -6.2 °C -12.3 °C 34716.7 hPa NNW 9 km/h 9 km/h 49 % 0 mm 151.0 W/m2 CLR
17:23 -6.2 °C -12.4 °C 34716.7 hPa Calm     49 % 0 mm 207.0 W/m2 CLR
17:28 -6.2 °C -12.6 °C 34716.7 hPa NNW 23.8 km/h 23.8 km/h 48 % 0 mm 155.0 W/m2 CLR
17:33 -6.2 °C -12.6 °C 34716.7 hPa WNW 9 km/h 9 km/h 48 % 0 mm 158.0 W/m2 CLR
17:38 -6.3 °C -12.3 °C 34716.7 hPa NNW 5.1 km/h 5.1 km/h 50 % 0 mm 134.0 W/m2 CLR
17:43 -6.3 °C -12.6 °C 34716.7 hPa NW 9 km/h 9 km/h 48 % 0 mm 181.0 W/m2 CLR
17:48 -6.2 °C -12.6 °C 34716.7 hPa West 9 km/h 9 km/h 48 % 0 mm 158.0 W/m2 CLR
17:53 -6.2 °C -12.6 °C 34716.7 hPa WNW 9 km/h 9 km/h 48 % 0 mm 118.0 W/m2 CLR
17:58 -6.3 °C -12.6 °C 34716.7 hPa Calm     48 % 0 mm 97.0 W/m2 CLR
18:03 -6.3 °C -12.7 °C 34716.7 hPa WNW 6 km/h 6 km/h 48 % 0 mm 98.0 W/m2 CLR
18:08 -6.3 °C -12.3 °C 34716.7 hPa NW 9 km/h 9 km/h 50 % 0 mm 70.0 W/m2 FEW
18:13 -6.5 °C -12.8 °C 34716.7 hPa NW 6 km/h 6 km/h 48 % 0 mm 67.0 W/m2 SCT
18:18 -6.6 °C -12.6 °C 34716.7 hPa WNW 2.6 km/h 2.6 km/h 50 % 0 mm 56.0 W/m2 SCT
18:23 -6.7 °C -12.7 °C 34716.7 hPa Calm     50 % 0 mm 44.0 W/m2 BKN
18:28 -6.8 °C -12.7 °C 34716.7 hPa Calm     50 % 0 mm 37.0 W/m2 BKN
18:29 -6.8 °C -12.6 °C 34716.7 hPa Calm     51 % 0 mm 37.0 W/m2 BKN
18:34 -6.8 °C -12.7 °C 34716.7 hPa Calm     51 % 0 mm 28.0 W/m2 BKN
18:39 -7 °C -12.9 °C 34716.7 hPa Calm     50 % 0 mm 21.0 W/m2 BKN
18:44 -7.1 °C -12.8 °C 34716.7 hPa Calm     51 % 0 mm 16.0 W/m2 BKN
18:49 -7.1 °C -12.9 °C 34716.7 hPa Calm     51 % 0 mm 11.0 W/m2 BKN
18:54 -7.3 °C -12.8 °C 34716.7 hPa Calm     52 % 0 mm 7.0 W/m2 BKN
18:59 -7.4 °C -12.8 °C 34726.8 hPa Calm     53 % 0 mm 0.0 W/m2 OVC
19:04 -7.7 °C -12.8 °C 34726.8 hPa Calm     55 % 0 mm 0.0 W/m2 CLR
19:09 -7.8 °C -12.7 °C 34726.8 hPa Calm     56 % 0 mm 0.0 W/m2 CLR
19:14 -8 °C -12.9 °C 34726.8 hPa WSW 6 km/h 6 km/h 56 % 0 mm 0.0 W/m2 CLR
19:19 -8.1 °C -12.9 °C 34716.7 hPa WSW 9 km/h 9 km/h 57 % 0 mm 0.0 W/m2 CLR
19:29 -7.9 °C -13.2 °C 34726.8 hPa WSW 9 km/h 9 km/h 54 % 0 mm 0.0 W/m2 CLR
19:34 -7.7 °C -13 °C 34726.8 hPa West 10.3 km/h 10.3 km/h 54 % 0 mm 0.0 W/m2 CLR
19:39 -7.7 °C -13.1 °C 34726.8 hPa West 9 km/h 9 km/h 53 % 0 mm 0.0 W/m2 CLR
19:44 -7.7 °C -13 °C 34726.8 hPa West 11.9 km/h 11.9 km/h 54 % 0 mm 0.0 W/m2 CLR
19:54 -8.2 °C -12.8 °C 34726.8 hPa Calm     58 % 0 mm 0.0 W/m2 CLR
19:59 -8.5 °C -13 °C 34726.8 hPa Calm     59 % 0 mm 0.0 W/m2 CLR
20:04 -8.8 °C -12.9 °C 34740.4 hPa Calm     62 % 0 mm 0.0 W/m2 CLR
20:09 -9.2 °C -12.9 °C 34740.4 hPa Calm     64 % 0 mm 0.0 W/m2 CLR
20:14 -9.4 °C -12.8 °C 34740.4 hPa Calm     67 % 0 mm 0.0 W/m2 CLR
20:19 -9.7 °C -12.9 °C 34740.4 hPa Calm     68 % 0 mm 0.0 W/m2 CLR
20:24 -9.8 °C -12.9 °C 34740.4 hPa Calm     69 % 0 mm 0.0 W/m2 CLR
20:29 -10 °C -13 °C 34750.5 hPa Calm     70 % 0 mm 0.0 W/m2 CLR
20:35 -10.2 °C -13 °C 34750.5 hPa Calm     71 % 0 mm 0.0 W/m2 CLR
20:40 -10.4 °C -13.1 °C 34750.5 hPa Calm     72 % 0 mm 0.0 W/m2 CLR
20:45 -10.6 °C -13.1 °C 34750.5 hPa Calm     74 % 0 mm 0.0 W/m2 CLR
20:50 -10.8 °C -13.2 °C 34750.5 hPa Calm     75 % 0 mm 0.0 W/m2 CLR
20:55 -10.9 °C -13.2 °C 34750.5 hPa Calm     76 % 0 mm 0.0 W/m2 CLR
21:00 -11.1 °C -13.2 °C 34750.5 hPa Calm     77 % 0 mm 0.0 W/m2 CLR
21:01 -11.1 °C -13.2 °C 34750.5 hPa Calm     77 % 0 mm 0.0 W/m2 CLR
21:06 -11.2 °C -13.3 °C 34750.5 hPa Calm     77 % 0 mm 0.0 W/m2 CLR
21:07 -11.2 °C -13.3 °C 34750.5 hPa Calm     77 % 0 mm 0.0 W/m2 CLR
21:12 -11.2 °C -13.3 °C 34750.5 hPa Calm     78 % 0 mm 0.0 W/m2 CLR
21:17 -11.3 °C -13.4 °C 34750.5 hPa Calm     78 % 0 mm 0.0 W/m2 CLR
21:22 -11.4 °C -13.4 °C 34750.5 hPa Calm     78 % 0 mm 0.0 W/m2 CLR
21:27 -11.4 °C -13.5 °C 34760.7 hPa Calm     78 % 0 mm 0.0 W/m2 CLR
21:32 -11.5 °C -13.4 °C 34760.7 hPa Calm     79 % 0 mm 0.0 W/m2 CLR
21:37 -11.5 °C -13.6 °C 34760.7 hPa Calm     78 % 0 mm 0.0 W/m2 CLR
21:42 -11.5 °C -13.6 °C 34760.7 hPa Calm     78 % 0 mm 0.0 W/m2 CLR
21:47 -11.6 °C -13.5 °C 34760.7 hPa Calm     79 % 0 mm 0.0 W/m2 CLR
21:52 -11.6 °C -13.7 °C 34760.7 hPa Calm     78 % 0 mm 0.0 W/m2 CLR
21:57 -11.6 °C -13.7 °C 34760.7 hPa Calm     78 % 0 mm 0.0 W/m2 CLR
22:02 -11.6 °C -13.7 °C 34760.7 hPa Calm     78 % 0 mm 0.0 W/m2 CLR
22:07 -11.7 °C -13.7 °C 34774.2 hPa Calm     79 % 0 mm 0.0 W/m2 CLR
22:12 -11.9 °C -13.7 °C 34774.2 hPa Calm     80 % 0 mm 0.0 W/m2 CLR
22:17 -11.9 °C -13.8 °C 34774.2 hPa Calm     80 % 0 mm 0.0 W/m2 CLR
22:22 -12 °C -13.8 °C 34774.2 hPa Calm     80 % 0 mm 0.0 W/m2 CLR
22:27 -12.1 °C -13.8 °C 34774.2 hPa Calm     80 % 0 mm 0.0 W/m2 CLR
22:32 -12.1 °C -13.8 °C 34774.2 hPa Calm     81 % 0 mm 0.0 W/m2 CLR
22:37 -12.1 °C -13.8 °C 34774.2 hPa Calm     81 % 0 mm 0.0 W/m2 CLR
22:42 -12.1 °C -13.8 °C 34774.2 hPa Calm     81 % 0 mm 0.0 W/m2 CLR
22:47 -12.2 °C -13.9 °C 34774.2 hPa Calm     81 % 0 mm 0.0 W/m2 CLR
22:52 -12.3 °C -14.1 °C 34774.2 hPa Calm     81 % 0 mm 0.0 W/m2 CLR
22:57 -12.4 °C -14.1 °C 34774.2 hPa Calm     82 % 0 mm 0.0 W/m2 CLR
23:02 -12.5 °C -14 °C 34774.2 hPa Calm     83 % 0 mm 0.0 W/m2 CLR
23:07 -12.6 °C -14.1 °C 34774.2 hPa Calm     83 % 0 mm 0.0 W/m2 CLR
23:12 -12.6 °C -14.1 °C 34774.2 hPa Calm     84 % 0 mm 0.0 W/m2 CLR
23:17 -12.7 °C -14.1 °C 34774.2 hPa Calm     84 % 0 mm 0.0 W/m2 CLR
23:22 -12.7 °C -14.2 °C 34774.2 hPa Calm     84 % 0 mm 0.0 W/m2 CLR
23:27 -12.7 °C -14.1 °C 34774.2 hPa Calm     85 % 0 mm 0.0 W/m2 CLR
23:32 -12.7 °C -14.1 °C 34784.4 hPa Calm     85 % 0 mm 0.0 W/m2 CLR
23:37 -12.7 °C -14.2 °C 34784.4 hPa Calm     84 % 0 mm 0.0 W/m2 CLR
23:42 -12.8 °C -14.1 °C 34774.2 hPa Calm     85 % 0 mm 0.0 W/m2 CLR
23:47 -12.9 °C -14.2 °C 34774.2 hPa Calm     85 % 0 mm 0.0 W/m2 CLR
23:52 -12.8 °C -14.2 °C 34784.4 hPa SW 5.1 km/h 5.1 km/h 85 % 0 mm 0.0 W/m2 CLR
23:57 -12.8 °C -14.2 °C 34784.4 hPa SW 9 km/h 9 km/h 85 % 0 mm 0.0 W/m2 CLR
Lo Temps de Massalio
Compliments of Weather Underground - 1.25 mb